sensor_id;sensor_type;location;lat;lon;timestamp;P1;durP1;ratioP1;P2;durP2;ratioP2
19043;SDS011;9654;52.302;8.120;2023-04-24T00:00:37;1.50;;;0.83;;
19043;SDS011;9654;52.302;8.120;2023-04-24T00:03:05;0.67;;;0.63;;
19043;SDS011;9654;52.302;8.120;2023-04-24T00:05:32;0.80;;;0.80;;
19043;SDS011;9654;52.302;8.120;2023-04-24T00:07:59;0.83;;;0.83;;
19043;SDS011;9654;52.302;8.120;2023-04-24T00:10:26;0.70;;;0.70;;
19043;SDS011;9654;52.302;8.120;2023-04-24T00:12:54;1.80;;;0.80;;
19043;SDS011;9654;52.302;8.120;2023-04-24T00:15:21;1.13;;;0.90;;
19043;SDS011;9654;52.302;8.120;2023-04-24T00:17:48;2.27;;;0.90;;
19043;SDS011;9654;52.302;8.120;2023-04-24T00:20:15;0.70;;;0.70;;
19043;SDS011;9654;52.302;8.120;2023-04-24T00:22:42;1.10;;;1.10;;
19043;SDS011;9654;52.302;8.120;2023-04-24T00:25:08;1.50;;;1.40;;
19043;SDS011;9654;52.302;8.120;2023-04-24T00:27:35;1.90;;;1.80;;
19043;SDS011;9654;52.302;8.120;2023-04-24T00:30:05;3.90;;;1.83;;
19043;SDS011;9654;52.302;8.120;2023-04-24T00:32:33;1.63;;;1.53;;
19043;SDS011;9654;52.302;8.120;2023-04-24T00:34:59;2.80;;;1.67;;
19043;SDS011;9654;52.302;8.120;2023-04-24T00:37:26;1.67;;;1.57;;
19043;SDS011;9654;52.302;8.120;2023-04-24T00:39:53;1.63;;;1.53;;
19043;SDS011;9654;52.302;8.120;2023-04-24T00:42:20;1.57;;;1.47;;
19043;SDS011;9654;52.302;8.120;2023-04-24T00:44:47;1.93;;;1.80;;
19043;SDS011;9654;52.302;8.120;2023-04-24T00:47:15;1.60;;;1.60;;
19043;SDS011;9654;52.302;8.120;2023-04-24T00:49:42;1.50;;;1.40;;
19043;SDS011;9654;52.302;8.120;2023-04-24T00:52:09;1.87;;;1.77;;
19043;SDS011;9654;52.302;8.120;2023-04-24T00:54:37;1.53;;;1.30;;
19043;SDS011;9654;52.302;8.120;2023-04-24T00:57:04;1.50;;;1.40;;
19043;SDS011;9654;52.302;8.120;2023-04-24T00:59:31;3.80;;;1.30;;
19043;SDS011;9654;52.302;8.120;2023-04-24T01:01:58;1.40;;;1.30;;
19043;SDS011;9654;52.302;8.120;2023-04-24T01:04:27;1.23;;;1.13;;
19043;SDS011;9654;52.302;8.120;2023-04-24T01:06:54;1.50;;;1.27;;
19043;SDS011;9654;52.302;8.120;2023-04-24T01:09:22;1.20;;;1.20;;
19043;SDS011;9654;52.302;8.120;2023-04-24T01:11:49;1.60;;;1.50;;
19043;SDS011;9654;52.302;8.120;2023-04-24T01:14:17;2.07;;;1.30;;
19043;SDS011;9654;52.302;8.120;2023-04-24T01:16:43;1.20;;;1.20;;
19043;SDS011;9654;52.302;8.120;2023-04-24T01:19:10;3.27;;;1.40;;
19043;SDS011;9654;52.302;8.120;2023-04-24T01:21:39;1.57;;;1.30;;
19043;SDS011;9654;52.302;8.120;2023-04-24T01:24:09;1.17;;;1.07;;
19043;SDS011;9654;52.302;8.120;2023-04-24T01:26:35;1.43;;;1.30;;
19043;SDS011;9654;52.302;8.120;2023-04-24T01:29:02;1.67;;;1.20;;
19043;SDS011;9654;52.302;8.120;2023-04-24T01:31:29;1.77;;;1.23;;
19043;SDS011;9654;52.302;8.120;2023-04-24T01:33:56;2.37;;;1.47;;
19043;SDS011;9654;52.302;8.120;2023-04-24T01:36:23;1.43;;;1.30;;
19043;SDS011;9654;52.302;8.120;2023-04-24T01:38:52;1.37;;;1.20;;
19043;SDS011;9654;52.302;8.120;2023-04-24T01:41:20;1.50;;;1.40;;
19043;SDS011;9654;52.302;8.120;2023-04-24T01:43:47;1.73;;;1.23;;
19043;SDS011;9654;52.302;8.120;2023-04-24T01:46:14;1.23;;;1.20;;
19043;SDS011;9654;52.302;8.120;2023-04-24T01:48:41;1.17;;;0.90;;
19043;SDS011;9654;52.302;8.120;2023-04-24T01:51:08;0.93;;;0.93;;
19043;SDS011;9654;52.302;8.120;2023-04-24T01:53:35;2.00;;;1.13;;
19043;SDS011;9654;52.302;8.120;2023-04-24T01:56:02;0.80;;;0.73;;
19043;SDS011;9654;52.302;8.120;2023-04-24T01:58:30;3.03;;;1.10;;
19043;SDS011;9654;52.302;8.120;2023-04-24T02:00:57;1.27;;;1.17;;
19043;SDS011;9654;52.302;8.120;2023-04-24T02:03:25;0.97;;;0.77;;
19043;SDS011;9654;52.302;8.120;2023-04-24T02:05:52;2.43;;;0.80;;
19043;SDS011;9654;52.302;8.120;2023-04-24T02:08:19;2.17;;;0.90;;
19043;SDS011;9654;52.302;8.120;2023-04-24T02:10:46;0.97;;;0.97;;
19043;SDS011;9654;52.302;8.120;2023-04-24T02:13:12;1.70;;;0.70;;
19043;SDS011;9654;52.302;8.120;2023-04-24T02:15:41;1.90;;;1.27;;
19043;SDS011;9654;52.302;8.120;2023-04-24T02:18:07;2.83;;;0.90;;
19043;SDS011;9654;52.302;8.120;2023-04-24T02:20:36;0.90;;;0.90;;
19043;SDS011;9654;52.302;8.120;2023-04-24T02:23:03;1.10;;;1.10;;
19043;SDS011;9654;52.302;8.120;2023-04-24T02:25:30;0.83;;;0.83;;
19043;SDS011;9654;52.302;8.120;2023-04-24T02:27:56;1.33;;;1.10;;
19043;SDS011;9654;52.302;8.120;2023-04-24T02:30:23;1.27;;;0.90;;
19043;SDS011;9654;52.302;8.120;2023-04-24T02:32:51;1.57;;;1.03;;
19043;SDS011;9654;52.302;8.120;2023-04-24T02:35:18;1.47;;;1.00;;
19043;SDS011;9654;52.302;8.120;2023-04-24T02:37:45;1.50;;;1.40;;
19043;SDS011;9654;52.302;8.120;2023-04-24T02:40:12;2.43;;;1.37;;
19043;SDS011;9654;52.302;8.120;2023-04-24T02:42:39;2.00;;;1.60;;
19043;SDS011;9654;52.302;8.120;2023-04-24T02:45:06;4.40;;;1.63;;
19043;SDS011;9654;52.302;8.120;2023-04-24T02:47:33;2.97;;;1.40;;
19043;SDS011;9654;52.302;8.120;2023-04-24T02:50:01;1.63;;;1.50;;
19043;SDS011;9654;52.302;8.120;2023-04-24T02:52:29;2.00;;;1.50;;
19043;SDS011;9654;52.302;8.120;2023-04-24T02:54:55;1.67;;;1.57;;
19043;SDS011;9654;52.302;8.120;2023-04-24T02:57:22;3.43;;;1.80;;
19043;SDS011;9654;52.302;8.120;2023-04-24T02:59:49;1.60;;;1.50;;
19043;SDS011;9654;52.302;8.120;2023-04-24T03:02:16;1.90;;;1.80;;
19043;SDS011;9654;52.302;8.120;2023-04-24T03:04:42;1.77;;;1.67;;
19043;SDS011;9654;52.302;8.120;2023-04-24T03:07:11;4.87;;;2.00;;
19043;SDS011;9654;52.302;8.120;2023-04-24T03:09:37;3.00;;;2.00;;
19043;SDS011;9654;52.302;8.120;2023-04-24T03:12:04;2.30;;;1.90;;
19043;SDS011;9654;52.302;8.120;2023-04-24T03:14:31;2.40;;;2.03;;
19043;SDS011;9654;52.302;8.120;2023-04-24T03:16:57;3.90;;;2.33;;
19043;SDS011;9654;52.302;8.120;2023-04-24T03:19:24;2.27;;;2.13;;
19043;SDS011;9654;52.302;8.120;2023-04-24T03:21:51;3.60;;;2.60;;
19043;SDS011;9654;52.302;8.120;2023-04-24T03:24:19;2.37;;;2.20;;
19043;SDS011;9654;52.302;8.120;2023-04-24T03:26:47;2.97;;;2.77;;
19043;SDS011;9654;52.302;8.120;2023-04-24T03:29:14;2.67;;;2.40;;
19043;SDS011;9654;52.302;8.120;2023-04-24T03:31:40;2.10;;;2.00;;
19043;SDS011;9654;52.302;8.120;2023-04-24T03:34:07;1.87;;;1.77;;
19043;SDS011;9654;52.302;8.120;2023-04-24T03:36:35;3.40;;;2.20;;
19043;SDS011;9654;52.302;8.120;2023-04-24T03:39:01;3.93;;;1.87;;
19043;SDS011;9654;52.302;8.120;2023-04-24T03:41:30;6.20;;;2.53;;
19043;SDS011;9654;52.302;8.120;2023-04-24T03:43:56;4.87;;;2.03;;
19043;SDS011;9654;52.302;8.120;2023-04-24T03:46:23;2.50;;;1.93;;
19043;SDS011;9654;52.302;8.120;2023-04-24T03:48:50;2.77;;;2.57;;
19043;SDS011;9654;52.302;8.120;2023-04-24T03:51:17;2.73;;;2.53;;
19043;SDS011;9654;52.302;8.120;2023-04-24T03:53:43;2.77;;;2.17;;
19043;SDS011;9654;52.302;8.120;2023-04-24T03:56:10;3.43;;;3.13;;
19043;SDS011;9654;52.302;8.120;2023-04-24T03:58:38;7.73;;;4.27;;
19043;SDS011;9654;52.302;8.120;2023-04-24T04:01:05;4.57;;;3.93;;
19043;SDS011;9654;52.302;8.120;2023-04-24T04:03:32;5.47;;;4.20;;
19043;SDS011;9654;52.302;8.120;2023-04-24T04:05:59;6.07;;;4.60;;
19043;SDS011;9654;52.302;8.120;2023-04-24T04:08:26;5.50;;;4.90;;
19043;SDS011;9654;52.302;8.120;2023-04-24T04:10:53;6.87;;;5.13;;
19043;SDS011;9654;52.302;8.120;2023-04-24T04:13:19;8.03;;;5.50;;
19043;SDS011;9654;52.302;8.120;2023-04-24T04:15:47;8.23;;;5.47;;
19043;SDS011;9654;52.302;8.120;2023-04-24T04:18:15;6.83;;;6.13;;
19043;SDS011;9654;52.302;8.120;2023-04-24T04:20:41;8.10;;;6.20;;
19043;SDS011;9654;52.302;8.120;2023-04-24T04:23:08;7.20;;;6.13;;
19043;SDS011;9654;52.302;8.120;2023-04-24T04:25:35;8.47;;;6.80;;
19043;SDS011;9654;52.302;8.120;2023-04-24T04:28:02;7.93;;;6.47;;
19043;SDS011;9654;52.302;8.120;2023-04-24T04:30:29;10.53;;;7.13;;
19043;SDS011;9654;52.302;8.120;2023-04-24T04:32:58;8.40;;;6.80;;
19043;SDS011;9654;52.302;8.120;2023-04-24T04:35:25;9.87;;;7.17;;
19043;SDS011;9654;52.302;8.120;2023-04-24T04:37:52;10.63;;;7.80;;
19043;SDS011;9654;52.302;8.120;2023-04-24T04:40:19;10.67;;;7.20;;
19043;SDS011;9654;52.302;8.120;2023-04-24T04:42:46;11.17;;;7.63;;
19043;SDS011;9654;52.302;8.120;2023-04-24T04:45:12;10.17;;;7.40;;
19043;SDS011;9654;52.302;8.120;2023-04-24T04:47:41;13.30;;;8.93;;
19043;SDS011;9654;52.302;8.120;2023-04-24T04:50:10;11.57;;;9.27;;
19043;SDS011;9654;52.302;8.120;2023-04-24T04:52:37;14.73;;;10.00;;
19043;SDS011;9654;52.302;8.120;2023-04-24T04:55:04;14.70;;;9.33;;
19043;SDS011;9654;52.302;8.120;2023-04-24T04:57:32;11.60;;;9.43;;
19043;SDS011;9654;52.302;8.120;2023-04-24T04:59:59;14.27;;;9.77;;
19043;SDS011;9654;52.302;8.120;2023-04-24T05:02:26;18.23;;;10.00;;
19043;SDS011;9654;52.302;8.120;2023-04-24T05:04:53;14.57;;;10.57;;
19043;SDS011;9654;52.302;8.120;2023-04-24T05:07:21;14.07;;;10.43;;
19043;SDS011;9654;52.302;8.120;2023-04-24T05:09:48;15.60;;;10.20;;
19043;SDS011;9654;52.302;8.120;2023-04-24T05:12:16;21.07;;;12.53;;
19043;SDS011;9654;52.302;8.120;2023-04-24T05:14:43;22.07;;;11.37;;
19043;SDS011;9654;52.302;8.120;2023-04-24T05:17:10;17.70;;;12.43;;
19043;SDS011;9654;52.302;8.120;2023-04-24T05:19:36;16.53;;;11.67;;
19043;SDS011;9654;52.302;8.120;2023-04-24T05:22:03;21.93;;;12.33;;
19043;SDS011;9654;52.302;8.120;2023-04-24T05:24:33;17.23;;;11.30;;
19043;SDS011;9654;52.302;8.120;2023-04-24T05:27:00;20.10;;;12.73;;
19043;SDS011;9654;52.302;8.120;2023-04-24T05:29:27;18.67;;;11.70;;
19043;SDS011;9654;52.302;8.120;2023-04-24T05:31:55;18.17;;;11.60;;
19043;SDS011;9654;52.302;8.120;2023-04-24T05:34:22;19.30;;;11.70;;
19043;SDS011;9654;52.302;8.120;2023-04-24T05:36:49;17.77;;;11.47;;
19043;SDS011;9654;52.302;8.120;2023-04-24T05:39:16;15.43;;;11.20;;
19043;SDS011;9654;52.302;8.120;2023-04-24T05:41:46;18.40;;;12.53;;
19043;SDS011;9654;52.302;8.120;2023-04-24T05:44:12;20.23;;;13.30;;
19043;SDS011;9654;52.302;8.120;2023-04-24T05:46:39;19.37;;;12.70;;
19043;SDS011;9654;52.302;8.120;2023-04-24T05:49:06;22.70;;;13.33;;
19043;SDS011;9654;52.302;8.120;2023-04-24T05:51:33;21.30;;;13.60;;
19043;SDS011;9654;52.302;8.120;2023-04-24T05:54:00;20.30;;;13.00;;
19043;SDS011;9654;52.302;8.120;2023-04-24T05:56:28;24.70;;;14.83;;
19043;SDS011;9654;52.302;8.120;2023-04-24T05:58:56;28.47;;;15.60;;
19043;SDS011;9654;52.302;8.120;2023-04-24T06:01:23;23.60;;;14.63;;
19043;SDS011;9654;52.302;8.120;2023-04-24T06:03:50;25.10;;;15.87;;
19043;SDS011;9654;52.302;8.120;2023-04-24T06:06:17;22.60;;;14.13;;
19043;SDS011;9654;52.302;8.120;2023-04-24T06:08:45;31.10;;;16.30;;
19043;SDS011;9654;52.302;8.120;2023-04-24T06:11:11;23.30;;;16.10;;
19043;SDS011;9654;52.302;8.120;2023-04-24T06:13:38;29.77;;;15.83;;
19043;SDS011;9654;52.302;8.120;2023-04-24T06:16:06;24.87;;;15.90;;
19043;SDS011;9654;52.302;8.120;2023-04-24T06:18:33;27.67;;;15.97;;
19043;SDS011;9654;52.302;8.120;2023-04-24T06:21:00;25.43;;;15.73;;
19043;SDS011;9654;52.302;8.120;2023-04-24T06:23:27;25.30;;;15.43;;
19043;SDS011;9654;52.302;8.120;2023-04-24T06:25:54;28.27;;;16.67;;
19043;SDS011;9654;52.302;8.120;2023-04-24T06:28:21;25.50;;;15.57;;
19043;SDS011;9654;52.302;8.120;2023-04-24T06:30:47;29.03;;;15.53;;
19043;SDS011;9654;52.302;8.120;2023-04-24T06:33:16;27.37;;;15.53;;
19043;SDS011;9654;52.302;8.120;2023-04-24T06:35:43;30.73;;;17.10;;
19043;SDS011;9654;52.302;8.120;2023-04-24T06:38:10;25.57;;;15.67;;
19043;SDS011;9654;52.302;8.120;2023-04-24T06:40:36;28.00;;;15.97;;
19043;SDS011;9654;52.302;8.120;2023-04-24T06:43:03;25.67;;;15.70;;
19043;SDS011;9654;52.302;8.120;2023-04-24T06:45:31;27.40;;;15.53;;
19043;SDS011;9654;52.302;8.120;2023-04-24T06:47:57;23.57;;;15.37;;
19043;SDS011;9654;52.302;8.120;2023-04-24T06:50:26;26.33;;;15.60;;
19043;SDS011;9654;52.302;8.120;2023-04-24T06:52:52;26.67;;;15.37;;
19043;SDS011;9654;52.302;8.120;2023-04-24T06:55:19;26.60;;;15.83;;
19043;SDS011;9654;52.302;8.120;2023-04-24T06:57:46;22.97;;;15.43;;
19043;SDS011;9654;52.302;8.120;2023-04-24T07:00:13;25.63;;;15.67;;
19043;SDS011;9654;52.302;8.120;2023-04-24T07:02:40;25.70;;;15.10;;
19043;SDS011;9654;52.302;8.120;2023-04-24T07:05:07;22.17;;;14.47;;
19043;SDS011;9654;52.302;8.120;2023-04-24T07:07:35;23.87;;;14.23;;
19043;SDS011;9654;52.302;8.120;2023-04-24T07:10:03;24.50;;;13.77;;
19043;SDS011;9654;52.302;8.120;2023-04-24T07:12:30;25.33;;;15.10;;
19043;SDS011;9654;52.302;8.120;2023-04-24T07:14:57;20.57;;;13.97;;
19043;SDS011;9654;52.302;8.120;2023-04-24T07:17:24;27.77;;;14.83;;
19043;SDS011;9654;52.302;8.120;2023-04-24T07:19:50;26.30;;;14.23;;
19043;SDS011;9654;52.302;8.120;2023-04-24T07:22:17;22.03;;;14.07;;
19043;SDS011;9654;52.302;8.120;2023-04-24T07:24:45;20.07;;;14.30;;
19043;SDS011;9654;52.302;8.120;2023-04-24T07:27:12;21.27;;;13.17;;
19043;SDS011;9654;52.302;8.120;2023-04-24T07:29:39;19.40;;;13.57;;
19043;SDS011;9654;52.302;8.120;2023-04-24T07:32:06;24.33;;;14.23;;
19043;SDS011;9654;52.302;8.120;2023-04-24T07:34:34;25.07;;;12.20;;
19043;SDS011;9654;52.302;8.120;2023-04-24T07:37:01;19.67;;;12.03;;
19043;SDS011;9654;52.302;8.120;2023-04-24T07:39:28;19.27;;;12.37;;
19043;SDS011;9654;52.302;8.120;2023-04-24T07:41:56;20.57;;;12.60;;
19043;SDS011;9654;52.302;8.120;2023-04-24T07:44:24;16.83;;;11.70;;
19043;SDS011;9654;52.302;8.120;2023-04-24T07:46:51;20.00;;;12.40;;
19043;SDS011;9654;52.302;8.120;2023-04-24T07:49:18;21.50;;;12.53;;
19043;SDS011;9654;52.302;8.120;2023-04-24T07:51:45;23.07;;;11.57;;
19043;SDS011;9654;52.302;8.120;2023-04-24T07:54:12;18.13;;;11.90;;
19043;SDS011;9654;52.302;8.120;2023-04-24T07:56:39;27.67;;;12.30;;
19043;SDS011;9654;52.302;8.120;2023-04-24T07:59:09;19.53;;;12.33;;
19043;SDS011;9654;52.302;8.120;2023-04-24T08:01:36;22.37;;;12.07;;
19043;SDS011;9654;52.302;8.120;2023-04-24T08:04:03;17.20;;;11.90;;
19043;SDS011;9654;52.302;8.120;2023-04-24T08:06:29;18.30;;;11.87;;
19043;SDS011;9654;52.302;8.120;2023-04-24T08:08:57;16.57;;;10.90;;
19043;SDS011;9654;52.302;8.120;2023-04-24T08:11:24;17.27;;;11.87;;
19043;SDS011;9654;52.302;8.120;2023-04-24T08:13:51;20.17;;;11.70;;
19043;SDS011;9654;52.302;8.120;2023-04-24T08:16:19;20.40;;;11.17;;
19043;SDS011;9654;52.302;8.120;2023-04-24T08:18:46;19.57;;;12.37;;
19043;SDS011;9654;52.302;8.120;2023-04-24T08:21:12;16.23;;;11.47;;
19043;SDS011;9654;52.302;8.120;2023-04-24T08:23:42;18.30;;;11.40;;
19043;SDS011;9654;52.302;8.120;2023-04-24T08:26:09;13.50;;;11.33;;
19043;SDS011;9654;52.302;8.120;2023-04-24T08:28:36;15.63;;;11.30;;
19043;SDS011;9654;52.302;8.120;2023-04-24T08:31:03;16.80;;;11.53;;
19043;SDS011;9654;52.302;8.120;2023-04-24T08:33:31;18.47;;;11.70;;
19043;SDS011;9654;52.302;8.120;2023-04-24T08:35:59;16.93;;;10.97;;
19043;SDS011;9654;52.302;8.120;2023-04-24T08:38:26;15.70;;;11.37;;
19043;SDS011;9654;52.302;8.120;2023-04-24T08:40:53;17.27;;;12.27;;
19043;SDS011;9654;52.302;8.120;2023-04-24T08:43:20;14.67;;;10.20;;
19043;SDS011;9654;52.302;8.120;2023-04-24T08:45:48;13.87;;;10.27;;
19043;SDS011;9654;52.302;8.120;2023-04-24T08:48:15;14.50;;;10.70;;
19043;SDS011;9654;52.302;8.120;2023-04-24T08:50:44;13.80;;;9.97;;
19043;SDS011;9654;52.302;8.120;2023-04-24T08:53:11;12.17;;;9.83;;
19043;SDS011;9654;52.302;8.120;2023-04-24T08:55:37;12.90;;;9.00;;
19043;SDS011;9654;52.302;8.120;2023-04-24T08:58:07;10.60;;;8.63;;
19043;SDS011;9654;52.302;8.120;2023-04-24T09:00:34;9.93;;;8.27;;
19043;SDS011;9654;52.302;8.120;2023-04-24T09:03:02;11.13;;;8.30;;
19043;SDS011;9654;52.302;8.120;2023-04-24T09:05:31;11.83;;;8.33;;
19043;SDS011;9654;52.302;8.120;2023-04-24T09:08:00;10.17;;;7.73;;
19043;SDS011;9654;52.302;8.120;2023-04-24T09:10:30;9.93;;;7.97;;
19043;SDS011;9654;52.302;8.120;2023-04-24T09:12:57;11.07;;;8.10;;
19043;SDS011;9654;52.302;8.120;2023-04-24T09:15:26;8.20;;;6.93;;
19043;SDS011;9654;52.302;8.120;2023-04-24T09:17:54;10.47;;;7.47;;
19043;SDS011;9654;52.302;8.120;2023-04-24T09:20:21;8.43;;;6.40;;
19043;SDS011;9654;52.302;8.120;2023-04-24T09:22:48;7.80;;;7.10;;
19043;SDS011;9654;52.302;8.120;2023-04-24T09:25:20;9.57;;;6.53;;
19043;SDS011;9654;52.302;8.120;2023-04-24T09:27:48;9.00;;;6.90;;
19043;SDS011;9654;52.302;8.120;2023-04-24T09:30:14;8.67;;;6.93;;
19043;SDS011;9654;52.302;8.120;2023-04-24T09:32:48;9.47;;;6.90;;
19043;SDS011;9654;52.302;8.120;2023-04-24T09:35:15;8.30;;;6.60;;
19043;SDS011;9654;52.302;8.120;2023-04-24T09:37:42;8.57;;;6.53;;
19043;SDS011;9654;52.302;8.120;2023-04-24T09:40:11;10.10;;;7.07;;
19043;SDS011;9654;52.302;8.120;2023-04-24T09:42:41;9.23;;;7.30;;
19043;SDS011;9654;52.302;8.120;2023-04-24T09:45:11;9.00;;;7.90;;
19043;SDS011;9654;52.302;8.120;2023-04-24T09:47:38;10.43;;;7.37;;
19043;SDS011;9654;52.302;8.120;2023-04-24T09:50:09;10.47;;;7.67;;
19043;SDS011;9654;52.302;8.120;2023-04-24T09:52:39;12.30;;;8.17;;
19043;SDS011;9654;52.302;8.120;2023-04-24T09:55:11;10.13;;;8.13;;
19043;SDS011;9654;52.302;8.120;2023-04-24T09:57:53;9.23;;;8.17;;
19043;SDS011;9654;52.302;8.120;2023-04-24T10:00:21;9.47;;;7.90;;
19043;SDS011;9654;52.302;8.120;2023-04-24T10:02:50;10.23;;;7.93;;
19043;SDS011;9654;52.302;8.120;2023-04-24T10:05:18;13.20;;;8.33;;
19043;SDS011;9654;52.302;8.120;2023-04-24T10:07:45;8.77;;;7.87;;
19043;SDS011;9654;52.302;8.120;2023-04-24T10:10:12;8.80;;;7.57;;
19043;SDS011;9654;52.302;8.120;2023-04-24T10:12:39;9.40;;;8.00;;
19043;SDS011;9654;52.302;8.120;2023-04-24T10:15:09;9.97;;;8.37;;
19043;SDS011;9654;52.302;8.120;2023-04-24T10:17:37;8.40;;;7.57;;
19043;SDS011;9654;52.302;8.120;2023-04-24T10:20:05;8.67;;;7.40;;
19043;SDS011;9654;52.302;8.120;2023-04-24T10:22:33;8.60;;;7.77;;
19043;SDS011;9654;52.302;8.120;2023-04-24T10:25:01;9.43;;;7.40;;
19043;SDS011;9654;52.302;8.120;2023-04-24T10:27:31;7.83;;;6.73;;
19043;SDS011;9654;52.302;8.120;2023-04-24T10:30:00;8.00;;;7.10;;
19043;SDS011;9654;52.302;8.120;2023-04-24T10:32:30;5.60;;;4.93;;
19043;SDS011;9654;52.302;8.120;2023-04-24T10:34:57;7.43;;;5.53;;
19043;SDS011;9654;52.302;8.120;2023-04-24T10:37:24;5.23;;;4.30;;
19043;SDS011;9654;52.302;8.120;2023-04-24T10:39:51;4.67;;;4.27;;
19043;SDS011;9654;52.302;8.120;2023-04-24T10:42:19;5.27;;;3.83;;
19043;SDS011;9654;52.302;8.120;2023-04-24T10:44:47;3.17;;;2.87;;
19043;SDS011;9654;52.302;8.120;2023-04-24T10:47:14;3.43;;;3.17;;
19043;SDS011;9654;52.302;8.120;2023-04-24T10:49:42;3.67;;;3.30;;
19043;SDS011;9654;52.302;8.120;2023-04-24T10:52:09;3.63;;;2.03;;
19043;SDS011;9654;52.302;8.120;2023-04-24T10:54:41;2.20;;;2.07;;
19043;SDS011;9654;52.302;8.120;2023-04-24T10:57:27;2.00;;;1.90;;
19043;SDS011;9654;52.302;8.120;2023-04-24T11:02:45;3.60;;;2.73;;
19043;SDS011;9654;52.302;8.120;2023-04-24T11:05:16;4.70;;;2.73;;
19043;SDS011;9654;52.302;8.120;2023-04-24T11:10:39;2.90;;;2.53;;
19043;SDS011;9654;52.302;8.120;2023-04-24T11:13:06;1.80;;;1.70;;
19043;SDS011;9654;52.302;8.120;2023-04-24T11:15:34;5.00;;;1.30;;
19043;SDS011;9654;52.302;8.120;2023-04-24T11:18:01;4.57;;;1.50;;
19043;SDS011;9654;52.302;8.120;2023-04-24T11:20:29;1.50;;;0.87;;
19043;SDS011;9654;52.302;8.120;2023-04-24T11:22:57;1.47;;;1.10;;
19043;SDS011;9654;52.302;8.120;2023-04-24T11:25:30;2.83;;;1.00;;
19043;SDS011;9654;52.302;8.120;2023-04-24T11:28:02;1.13;;;1.10;;
19043;SDS011;9654;52.302;8.120;2023-04-24T11:30:30;4.40;;;1.37;;
19043;SDS011;9654;52.302;8.120;2023-04-24T11:33:01;1.10;;;1.10;;
19043;SDS011;9654;52.302;8.120;2023-04-24T11:35:30;1.30;;;1.20;;
19043;SDS011;9654;52.302;8.120;2023-04-24T11:38:02;2.77;;;2.03;;
19043;SDS011;9654;52.302;8.120;2023-04-24T11:40:30;3.10;;;2.00;;
19043;SDS011;9654;52.302;8.120;2023-04-24T11:42:59;3.67;;;3.27;;
19043;SDS011;9654;52.302;8.120;2023-04-24T11:45:27;9.20;;;5.40;;
19043;SDS011;9654;52.302;8.120;2023-04-24T11:47:55;10.87;;;7.17;;
19043;SDS011;9654;52.302;8.120;2023-04-24T11:50:24;13.40;;;7.50;;
19043;SDS011;9654;52.302;8.120;2023-04-24T11:52:54;12.00;;;7.03;;
19043;SDS011;9654;52.302;8.120;2023-04-24T11:55:25;15.30;;;8.47;;
19043;SDS011;9654;52.302;8.120;2023-04-24T11:57:54;12.90;;;7.47;;
19043;SDS011;9654;52.302;8.120;2023-04-24T12:00:25;14.80;;;8.27;;
19043;SDS011;9654;52.302;8.120;2023-04-24T12:03:03;13.20;;;8.77;;
19043;SDS011;9654;52.302;8.120;2023-04-24T12:05:31;15.03;;;9.13;;
19043;SDS011;9654;52.302;8.120;2023-04-24T12:08:00;13.30;;;8.93;;
19043;SDS011;9654;52.302;8.120;2023-04-24T12:10:28;14.23;;;8.67;;
19043;SDS011;9654;52.302;8.120;2023-04-24T12:12:56;17.90;;;9.27;;
19043;SDS011;9654;52.302;8.120;2023-04-24T12:15:25;14.93;;;8.70;;
19043;SDS011;9654;52.302;8.120;2023-04-24T12:17:52;16.90;;;8.77;;
19043;SDS011;9654;52.302;8.120;2023-04-24T12:20:23;16.90;;;8.30;;
19043;SDS011;9654;52.302;8.120;2023-04-24T12:22:52;15.27;;;8.40;;
19043;SDS011;9654;52.302;8.120;2023-04-24T12:25:21;13.30;;;8.27;;
19043;SDS011;9654;52.302;8.120;2023-04-24T12:27:52;14.90;;;8.73;;
19043;SDS011;9654;52.302;8.120;2023-04-24T12:30:21;11.43;;;8.43;;
19043;SDS011;9654;52.302;8.120;2023-04-24T12:32:52;16.13;;;7.43;;
19043;SDS011;9654;52.302;8.120;2023-04-24T12:35:20;16.77;;;7.37;;
19043;SDS011;9654;52.302;8.120;2023-04-24T12:37:48;12.07;;;6.83;;
19043;SDS011;9654;52.302;8.120;2023-04-24T12:40:15;10.97;;;5.93;;
19043;SDS011;9654;52.302;8.120;2023-04-24T12:42:45;11.30;;;6.23;;
19043;SDS011;9654;52.302;8.120;2023-04-24T12:45:13;15.73;;;6.90;;
19043;SDS011;9654;52.302;8.120;2023-04-24T12:47:41;9.33;;;4.00;;
19043;SDS011;9654;52.302;8.120;2023-04-24T12:50:09;8.67;;;5.07;;
19043;SDS011;9654;52.302;8.120;2023-04-24T12:52:36;13.33;;;5.57;;
19043;SDS011;9654;52.302;8.120;2023-04-24T12:55:04;12.90;;;5.30;;
19043;SDS011;9654;52.302;8.120;2023-04-24T12:57:33;14.40;;;5.93;;
19043;SDS011;9654;52.302;8.120;2023-04-24T13:00:02;9.17;;;5.23;;
19043;SDS011;9654;52.302;8.120;2023-04-24T13:02:30;10.37;;;4.87;;
19043;SDS011;9654;52.302;8.120;2023-04-24T13:04:58;13.20;;;5.70;;
19043;SDS011;9654;52.302;8.120;2023-04-24T13:07:25;14.43;;;5.53;;
19043;SDS011;9654;52.302;8.120;2023-04-24T13:09:52;13.43;;;5.20;;
19043;SDS011;9654;52.302;8.120;2023-04-24T13:12:20;11.50;;;4.83;;
19043;SDS011;9654;52.302;8.120;2023-04-24T13:14:48;14.83;;;5.33;;
19043;SDS011;9654;52.302;8.120;2023-04-24T13:17:17;8.67;;;5.50;;
19043;SDS011;9654;52.302;8.120;2023-04-24T13:19:43;13.90;;;5.63;;
19043;SDS011;9654;52.302;8.120;2023-04-24T13:22:11;11.57;;;4.70;;
19043;SDS011;9654;52.302;8.120;2023-04-24T13:24:38;15.23;;;6.20;;
19043;SDS011;9654;52.302;8.120;2023-04-24T13:27:06;13.83;;;6.20;;
19043;SDS011;9654;52.302;8.120;2023-04-24T13:29:33;11.57;;;6.10;;
19043;SDS011;9654;52.302;8.120;2023-04-24T13:32:00;11.67;;;5.73;;
19043;SDS011;9654;52.302;8.120;2023-04-24T13:34:28;13.67;;;5.23;;
19043;SDS011;9654;52.302;8.120;2023-04-24T13:36:56;20.27;;;6.73;;
19043;SDS011;9654;52.302;8.120;2023-04-24T13:39:24;14.60;;;5.43;;
19043;SDS011;9654;52.302;8.120;2023-04-24T13:41:51;19.47;;;5.73;;
19043;SDS011;9654;52.302;8.120;2023-04-24T13:44:18;13.57;;;5.80;;
19043;SDS011;9654;52.302;8.120;2023-04-24T13:46:47;11.43;;;5.30;;
19043;SDS011;9654;52.302;8.120;2023-04-24T13:49:15;14.47;;;6.27;;
19043;SDS011;9654;52.302;8.120;2023-04-24T13:51:44;11.50;;;5.60;;
19043;SDS011;9654;52.302;8.120;2023-04-24T13:54:10;13.57;;;5.50;;
19043;SDS011;9654;52.302;8.120;2023-04-24T13:56:38;18.13;;;6.83;;
19043;SDS011;9654;52.302;8.120;2023-04-24T13:59:05;10.30;;;4.20;;
19043;SDS011;9654;52.302;8.120;2023-04-24T14:01:32;18.93;;;5.77;;
19043;SDS011;9654;52.302;8.120;2023-04-24T14:03:58;8.93;;;4.20;;
19043;SDS011;9654;52.302;8.120;2023-04-24T14:06:25;11.43;;;3.40;;
19043;SDS011;9654;52.302;8.120;2023-04-24T14:08:53;8.60;;;3.30;;
19043;SDS011;9654;52.302;8.120;2023-04-24T14:11:20;3.97;;;2.77;;
19043;SDS011;9654;52.302;8.120;2023-04-24T14:13:47;10.23;;;3.50;;
19043;SDS011;9654;52.302;8.120;2023-04-24T14:16:14;7.90;;;2.90;;
19043;SDS011;9654;52.302;8.120;2023-04-24T14:18:41;5.47;;;2.90;;
19043;SDS011;9654;52.302;8.120;2023-04-24T14:21:08;5.07;;;2.53;;
19043;SDS011;9654;52.302;8.120;2023-04-24T14:23:34;4.70;;;2.73;;
19043;SDS011;9654;52.302;8.120;2023-04-24T14:26:02;8.43;;;2.73;;
19043;SDS011;9654;52.302;8.120;2023-04-24T14:28:29;7.00;;;4.03;;
19043;SDS011;9654;52.302;8.120;2023-04-24T14:30:56;6.90;;;2.73;;
19043;SDS011;9654;52.302;8.120;2023-04-24T14:33:23;7.83;;;2.97;;
19043;SDS011;9654;52.302;8.120;2023-04-24T14:35:50;4.27;;;3.07;;
19043;SDS011;9654;52.302;8.120;2023-04-24T14:38:17;8.40;;;3.17;;
19043;SDS011;9654;52.302;8.120;2023-04-24T14:40:44;8.80;;;3.20;;
19043;SDS011;9654;52.302;8.120;2023-04-24T14:43:12;6.83;;;2.90;;
19043;SDS011;9654;52.302;8.120;2023-04-24T14:45:38;4.83;;;3.17;;
19043;SDS011;9654;52.302;8.120;2023-04-24T14:48:06;11.10;;;3.40;;
19043;SDS011;9654;52.302;8.120;2023-04-24T14:50:34;5.80;;;3.47;;
19043;SDS011;9654;52.302;8.120;2023-04-24T14:53:00;5.07;;;3.20;;
19043;SDS011;9654;52.302;8.120;2023-04-24T14:55:27;6.07;;;3.47;;
19043;SDS011;9654;52.302;8.120;2023-04-24T14:57:54;4.03;;;3.30;;